createdAt,value
2019-04-23T00:00:05.608Z,47.13
2019-04-23T00:06:16.945Z,47.41
2019-04-23T00:08:42.178Z,47.51
2019-04-23T00:13:44.259Z,47.60
2019-04-23T00:16:12.847Z,47.58
2019-04-23T00:18:42.276Z,47.55
2019-04-23T00:21:34.128Z,47.50
2019-04-23T00:24:13.929Z,47.25
2019-04-23T00:26:52.122Z,47.13
2019-04-23T00:29:19.970Z,46.94
2019-04-23T00:31:32.894Z,47.55
2019-04-23T00:34:01.031Z,47.43
2019-04-23T00:39:01.769Z,47.45
2019-04-23T00:41:39.146Z,47.50
2019-04-23T00:46:35.142Z,47.61
2019-04-23T00:49:14.982Z,47.59
2019-04-23T00:51:36.813Z,47.46
2019-04-23T00:54:05.912Z,47.39
2019-04-23T00:59:05.310Z,47.39
2019-04-23T01:01:47.745Z,47.31
2019-04-23T01:04:11.824Z,47.18
2019-04-23T01:06:32.126Z,47.46
2019-04-23T01:09:03.817Z,47.18
2019-04-23T01:11:34.253Z,47.43
2019-04-23T01:16:33.297Z,47.32
2019-04-23T01:19:44.480Z,47.52
2019-04-23T01:21:41.265Z,47.44
2019-04-23T01:24:30.781Z,47.37
2019-04-23T01:27:46.031Z,47.46
2019-04-23T01:32:38.290Z,47.39
2019-04-23T01:35:13.859Z,47.50
2019-04-23T01:37:36.895Z,47.60
2019-04-23T01:40:09.675Z,47.66
2019-04-23T01:42:40.617Z,47.70
2019-04-23T01:45:07.426Z,47.79
2019-04-23T01:47:38.855Z,47.85
2019-04-23T01:50:14.391Z,47.73
2019-04-23T01:52:39.877Z,47.91
2019-04-23T01:55:09.989Z,48.10
2019-04-23T01:57:37.528Z,47.72
2019-04-23T02:00:08.522Z,48.16
2019-04-23T02:02:46.501Z,48.20
2019-04-23T02:05:09.046Z,48.25
2019-04-23T02:07:44.483Z,48.35
2019-04-23T02:10:13.867Z,48.44
2019-04-23T02:12:42.284Z,48.78
2019-04-23T02:15:12.133Z,48.94
2019-04-23T02:17:38.307Z,48.97
2019-04-23T02:20:14.711Z,49.10
2019-04-23T02:25:39.343Z,49.05
2019-04-23T02:28:01.846Z,49.36
2019-04-23T02:30:55.023Z,49.17
2019-04-23T02:33:10.718Z,49.55
2019-04-23T02:38:27.260Z,49.54
2019-04-23T02:45:43.340Z,49.76
2019-04-23T02:48:10.935Z,49.88
2019-04-23T02:53:09.346Z,49.99
2019-04-23T02:58:02.443Z,50.19
2019-04-23T03:05:44.720Z,50.18
2019-04-23T03:08:00.411Z,50.73
2019-04-23T03:10:32.263Z,50.71
2019-04-23T03:13:21.279Z,50.72
2019-04-23T03:24:11.302Z,51.19
2019-04-23T03:26:47.662Z,50.84
2019-04-23T03:35:09.443Z,51.68
2019-04-23T03:36:39.784Z,51.64
2019-04-23T03:38:56.624Z,51.29
2019-04-23T03:43:57.171Z,51.91
2019-04-23T03:46:46.739Z,51.88
2019-04-23T03:51:38.259Z,52.39
2019-04-23T03:54:16.307Z,52.46
2019-04-23T04:04:22.735Z,52.62
2019-04-23T04:09:17.268Z,53.14
2019-04-23T04:14:12.154Z,53.42
2019-04-23T04:16:34.199Z,53.23
2019-04-23T04:26:43.768Z,53.44
2019-04-23T04:34:21.630Z,53.51
2019-04-23T04:36:45.043Z,53.87
2019-04-23T04:41:40.728Z,54.04
2019-04-23T04:44:35.647Z,53.83
2019-04-23T04:46:43.833Z,54.02
2019-04-23T04:49:23.300Z,53.99
2019-04-23T04:54:09.276Z,54.12
2019-04-23T04:56:40.361Z,54.21
2019-04-23T05:01:43.770Z,53.93
2019-04-23T05:04:14.019Z,54.37
2019-04-23T05:06:43.908Z,54.00
2019-04-23T05:09:14.636Z,54.34
2019-04-23T05:11:45.322Z,53.97
2019-04-23T05:14:28.272Z,54.06
2019-04-23T05:16:35.629Z,53.86
2019-04-23T05:19:58.842Z,54.36
2019-04-23T05:21:57.658Z,54.18
2019-04-23T05:24:19.363Z,54.22
2019-04-23T05:26:59.708Z,54.37
2019-04-23T05:31:42.666Z,53.76
2019-04-23T05:34:12.617Z,53.90
2019-04-23T05:41:43.655Z,54.10
2019-04-23T05:44:15.486Z,54.13
2019-04-23T05:49:14.391Z,54.31
2019-04-23T05:51:50.746Z,54.29
2019-04-23T05:54:12.824Z,54.35
2019-04-23T05:56:56.278Z,54.35
2019-04-23T05:59:30.069Z,54.59
2019-04-23T06:01:53.738Z,54.16
2019-04-23T06:09:13.876Z,54.24
2019-04-23T06:17:21.294Z,54.39
2019-04-23T06:21:10.200Z,54.42
2019-04-23T06:23:46.460Z,54.50
2019-04-23T06:26:33.150Z,54.32
2019-04-23T06:28:46.679Z,54.24
2019-04-23T06:31:10.902Z,54.32
2019-04-23T06:33:41.415Z,54.15
2019-04-23T06:36:13.597Z,54.15
2019-04-23T06:38:47.503Z,54.05
2019-04-23T06:41:08.618Z,53.88
2019-04-23T06:43:52.817Z,53.99
2019-04-23T06:46:12.052Z,54.21
2019-04-23T06:48:40.834Z,53.68
2019-04-23T06:51:20.258Z,53.58
2019-04-23T06:53:47.913Z,53.73
2019-04-23T06:56:13.200Z,53.77
2019-04-23T06:58:43.310Z,53.37
2019-04-23T07:01:13.342Z,53.37
2019-04-23T07:06:28.484Z,53.22
2019-04-23T07:11:23.325Z,53.09
2019-04-23T07:13:54.635Z,52.74
2019-04-23T07:16:17.923Z,52.34
2019-04-23T07:18:47.018Z,52.58
2019-04-23T07:21:17.825Z,52.21
2019-04-23T07:28:53.267Z,51.71
2019-04-23T07:31:29.641Z,51.53
2019-04-23T07:33:55.770Z,51.50
2019-04-23T07:36:31.017Z,51.28
2019-04-23T07:39:14.331Z,51.34
2019-04-23T07:42:03.365Z,51.45
2019-04-23T07:44:54.530Z,51.23
2019-04-23T07:47:33.698Z,50.93
2019-04-23T07:50:19.087Z,50.73
2019-04-23T07:52:40.662Z,50.77
2019-04-23T07:55:08.316Z,50.68
2019-04-23T07:57:38.155Z,49.96
2019-04-23T08:00:09.818Z,49.99
2019-04-23T08:02:37.709Z,49.88
2019-04-23T08:05:21.558Z,49.39
2019-04-23T08:10:12.389Z,48.98
2019-04-23T08:12:37.443Z,49.54
2019-04-23T08:15:09.439Z,49.14
2019-04-23T08:17:35.758Z,48.95
2019-04-23T08:20:07.926Z,48.63
2019-04-23T08:22:40.874Z,48.56
2019-04-23T08:25:37.200Z,48.57
2019-04-23T08:28:13.480Z,48.33
2019-04-23T08:30:39.035Z,48.02
2019-04-23T08:33:23.433Z,47.67
2019-04-23T08:35:43.270Z,47.86
2019-04-23T08:40:42.892Z,47.62
2019-04-23T08:43:31.483Z,47.79
2019-04-23T08:46:08.166Z,47.91
2019-04-23T08:48:34.514Z,46.73
2019-04-23T08:51:09.627Z,46.73
2019-04-23T08:56:06.812Z,46.02
2019-04-23T08:58:32.489Z,46.02
2019-04-23T09:01:24.900Z,46.27
2019-04-23T09:03:30.111Z,45.58
2019-04-23T09:06:05.354Z,45.58
2019-04-23T09:08:42.119Z,45.88
2019-04-23T09:16:05.185Z,45.60
2019-04-23T09:18:47.338Z,45.22
2019-04-23T09:21:02.162Z,44.77
2019-04-23T09:26:00.861Z,44.69
2019-04-23T10:25:29.970Z,45.37
2019-04-23T10:28:04.314Z,45.04
2019-04-23T10:30:28.936Z,44.52
2019-04-23T10:32:57.869Z,44.40
2019-04-23T10:35:39.531Z,43.42
2019-04-23T10:38:02.712Z,43.20
2019-04-23T10:40:32.222Z,43.17
2019-04-23T10:42:56.462Z,43.75
2019-04-23T10:45:48.439Z,43.61
2019-04-23T10:49:24.143Z,43.64
2019-04-23T10:51:49.494Z,43.27
2019-04-23T10:54:17.847Z,43.30
2019-04-23T10:59:03.210Z,43.88
2019-04-23T11:01:35.883Z,43.66
2019-04-23T11:04:23.804Z,43.11
2019-04-23T11:07:09.979Z,43.55
2019-04-23T11:09:27.545Z,43.08
2019-04-23T11:11:53.850Z,43.38
2019-04-23T11:14:25.571Z,43.60
2019-04-23T11:19:25.813Z,43.54
2019-04-23T11:21:56.264Z,43.24
2019-04-23T11:24:32.436Z,43.36
2019-04-23T11:26:49.295Z,42.89
2019-04-23T11:29:27.972Z,42.13
2019-04-23T11:31:58.350Z,42.23
2019-04-23T11:34:36.568Z,42.23
2019-04-23T11:39:21.661Z,41.36
2019-04-23T11:44:28.872Z,40.63
2019-04-23T11:49:34.761Z,39.70
2019-04-23T11:52:13.613Z,40.27
2019-04-23T11:54:22.736Z,39.66
2019-04-23T11:57:14.171Z,39.54
2019-04-23T11:59:31.575Z,39.30
2019-04-23T12:02:12.125Z,39.27
2019-04-23T12:07:39.692Z,39.22
2019-04-23T12:10:22.239Z,39.24
2019-04-23T12:12:39.992Z,38.67
2019-04-23T12:15:19.043Z,37.68
2019-04-23T12:17:50.790Z,38.08
2019-04-23T12:20:26.791Z,38.35
2019-04-23T12:25:27.973Z,37.96
2019-04-23T12:27:42.448Z,37.98
2019-04-23T12:33:10.926Z,37.27
2019-04-23T12:35:22.439Z,37.54
2019-04-23T12:45:33.512Z,38.06
2019-04-23T12:50:44.753Z,38.89
2019-04-23T12:53:19.897Z,39.12
2019-04-23T12:55:36.216Z,39.18
2019-04-23T12:58:20.361Z,39.81
2019-04-23T13:03:05.727Z,39.66
2019-04-23T13:05:31.226Z,40.12
2019-04-23T13:08:08.229Z,40.04
2019-04-23T13:10:32.342Z,39.95
2019-04-23T13:15:34.346Z,39.90
2019-04-23T13:18:23.875Z,39.59
2019-04-23T13:20:36.846Z,39.53
2019-04-23T13:23:15.199Z,39.51
2019-04-23T13:25:57.064Z,39.62
2019-04-23T13:36:08.457Z,41.37
2019-04-23T13:38:38.419Z,41.85
2019-04-23T13:41:13.393Z,41.96
2019-04-23T13:46:17.932Z,42.06
2019-04-23T13:48:31.235Z,42.22
2019-04-23T13:56:15.218Z,42.30
2019-04-23T13:58:36.323Z,43.16
2019-04-23T14:03:40.545Z,42.49
2019-04-23T14:06:27.594Z,42.46
2019-04-23T14:14:00.060Z,42.91
2019-04-23T14:24:06.373Z,43.62
2019-04-23T14:26:25.496Z,44.24
2019-04-23T14:31:16.787Z,45.25
2019-04-23T14:36:36.198Z,44.50
2019-04-23T14:38:53.850Z,44.33
2019-04-23T14:43:58.424Z,44.71
2019-04-23T14:49:04.164Z,45.60
2019-04-23T14:53:48.108Z,45.60
2019-04-23T14:56:22.670Z,45.09
2019-04-23T15:03:50.585Z,44.82
2019-04-23T15:06:27.713Z,44.63
2019-04-23T15:08:57.369Z,44.32
2019-04-23T15:16:26.211Z,44.27
2019-04-23T15:19:20.834Z,44.26
2019-04-23T15:24:15.702Z,43.67
2019-04-23T15:27:53.099Z,43.83
2019-04-23T15:28:45.446Z,42.85
2019-04-23T15:31:46.635Z,43.29
2019-04-23T15:41:59.238Z,40.86
2019-04-23T15:44:09.708Z,40.67
2019-04-23T15:46:41.148Z,40.46
2019-04-23T15:51:47.441Z,40.61
2019-04-23T15:54:14.130Z,40.46
2019-04-23T15:56:40.946Z,40.57
2019-04-23T15:59:25.910Z,40.90
2019-04-23T16:03:43.279Z,41.98
2019-04-23T16:06:12.767Z,43.10
2019-04-23T16:19:25.492Z,44.64
2019-04-23T16:26:51.001Z,45.02
2019-04-23T16:29:34.236Z,45.15
2019-04-23T16:31:46.893Z,45.63
2019-04-23T16:34:20.134Z,45.53
2019-04-23T16:36:43.811Z,45.52
2019-04-23T16:41:54.351Z,46.01
2019-04-23T16:44:24.313Z,46.22
2019-04-23T16:46:50.402Z,46.30
2019-04-23T16:49:17.793Z,46.26
2019-04-23T16:51:38.863Z,46.29
2019-04-23T16:57:01.191Z,46.86
2019-04-23T17:01:52.389Z,47.00
2019-04-23T17:04:32.694Z,46.54
2019-04-23T17:09:21.829Z,46.86
2019-04-23T17:11:53.110Z,46.73
2019-04-23T17:14:18.701Z,46.73
2019-04-23T17:19:19.287Z,47.07
2019-04-23T17:21:51.954Z,47.23
2019-04-23T17:26:46.096Z,46.45
2019-04-23T17:29:21.338Z,45.92
2019-04-23T17:31:45.216Z,45.47
2019-04-23T17:34:30.197Z,45.55
2019-04-23T17:37:07.013Z,45.86
2019-04-23T17:40:14.087Z,45.71
2019-04-23T17:42:48.265Z,46.09
2019-04-23T17:45:30.770Z,45.91
2019-04-23T17:48:13.329Z,46.21
2019-04-23T17:56:02.432Z,46.53
2019-04-23T17:58:23.440Z,46.90
2019-04-23T18:03:30.541Z,46.92
2019-04-23T18:06:14.300Z,46.66
2019-04-23T18:08:29.213Z,46.71
2019-04-23T18:11:05.902Z,46.54
2019-04-23T18:13:28.204Z,46.54
2019-04-23T18:16:03.624Z,46.30
2019-04-23T18:18:39.514Z,46.70
2019-04-23T18:21:38.681Z,46.39
2019-04-23T18:24:23.102Z,46.21
2019-04-23T18:29:55.227Z,46.05
2019-04-23T18:33:33.942Z,46.18
2019-04-23T18:35:29.640Z,46.23
2019-04-23T18:38:18.324Z,47.34
2019-04-23T18:40:59.350Z,45.46
2019-04-23T18:51:07.863Z,45.96
2019-04-23T18:53:40.971Z,46.42
2019-04-23T18:58:44.777Z,46.35
2019-04-23T19:01:05.245Z,46.10
2019-04-23T19:06:38.222Z,46.75
2019-04-23T19:09:47.760Z,47.10
2019-04-23T19:14:59.789Z,47.96
2019-04-23T19:17:43.001Z,48.47
2019-04-23T19:25:09.321Z,49.21
2019-04-23T19:30:05.061Z,51.16
2019-04-23T19:32:33.993Z,51.29
2019-04-23T19:35:16.243Z,51.09
2019-04-23T19:37:44.133Z,51.66
2019-04-23T19:39:55.003Z,52.03
2019-04-23T19:42:36.761Z,52.77
2019-04-23T19:44:53.867Z,52.82
2019-04-23T19:47:39.875Z,53.56
2019-04-23T19:49:58.917Z,53.94
2019-04-23T19:52:51.981Z,54.60
2019-04-23T19:54:58.822Z,54.89
2019-04-23T19:57:50.500Z,55.45
2019-04-23T20:00:31.571Z,56.77
2019-04-23T20:05:08.854Z,58.68
2019-04-23T20:07:43.735Z,59.52
2019-04-23T20:10:11.752Z,59.82
2019-04-23T20:12:39.070Z,59.44
2019-04-23T20:15:07.399Z,60.22
2019-04-23T20:17:37.647Z,60.56
2019-04-23T20:20:19.796Z,61.49
2019-04-23T20:22:41.819Z,61.22
2019-04-23T20:27:39.221Z,62.60
2019-04-23T20:31:05.422Z,63.52
2019-04-23T20:35:48.780Z,64.93
2019-04-23T20:40:56.911Z,65.58
2019-04-23T20:43:14.783Z,65.91
2019-04-23T20:48:20.013Z,66.63
2019-04-23T20:50:44.351Z,66.57
2019-04-23T20:53:16.985Z,66.71
2019-04-23T20:58:33.169Z,68.58
2019-04-23T21:06:46.765Z,68.56
2019-04-23T21:09:17.424Z,68.32
2019-04-23T21:14:24.032Z,69.96
2019-04-23T21:16:39.009Z,70.57
2019-04-23T21:18:55.409Z,70.57
2019-04-23T21:21:33.802Z,69.38
2019-04-23T21:26:37.219Z,70.21
2019-04-23T21:28:54.275Z,70.53
2019-04-23T21:34:09.699Z,70.03
2019-04-23T21:36:43.485Z,69.66
2019-04-23T21:39:38.625Z,69.66
2019-04-23T21:42:21.269Z,70.67
2019-04-23T21:44:33.997Z,70.62
2019-04-23T21:47:08.967Z,70.62
2019-04-23T21:49:52.269Z,72.31
2019-04-23T21:52:05.016Z,72.93
2019-04-23T21:54:39.025Z,73.27
2019-04-23T21:57:09.112Z,73.17
2019-04-23T21:59:39.024Z,73.17
2019-04-23T22:07:11.917Z,72.90
2019-04-23T22:09:43.706Z,73.12
2019-04-23T22:14:40.558Z,73.91
2019-04-23T22:17:09.598Z,73.12
2019-04-23T22:19:38.410Z,73.11
2019-04-23T22:22:00.969Z,73.11
2019-04-23T22:24:42.806Z,73.95
2019-04-23T22:27:03.986Z,73.65
2019-04-23T22:32:02.393Z,73.67
2019-04-23T22:34:42.956Z,73.46
2019-04-23T22:37:10.894Z,73.46
2019-04-23T22:39:43.628Z,73.89
2019-04-23T22:42:22.007Z,73.12
2019-04-23T22:44:53.997Z,73.12
2019-04-23T22:49:45.389Z,73.97
2019-04-23T22:54:55.280Z,72.94
2019-04-23T22:57:04.690Z,72.94
2019-04-23T23:00:00.831Z,73.58
2019-04-23T23:02:53.850Z,73.58
2019-04-23T23:10:12.928Z,73.22
2019-04-23T23:12:52.424Z,72.84
2019-04-23T23:18:02.421Z,72.20
2019-04-23T23:20:23.875Z,72.50
2019-04-23T23:22:57.120Z,72.18
2019-04-23T23:25:25.182Z,71.90
2019-04-23T23:30:21.691Z,71.87
2019-04-23T23:32:57.074Z,71.63
2019-04-23T23:37:49.928Z,71.78
2019-04-23T23:40:21.857Z,71.78
2019-04-23T23:43:05.765Z,71.54
2019-04-23T23:45:30.504Z,70.88
2019-04-23T23:47:54.405Z,70.77
2019-04-23T23:52:53.669Z,70.93
2019-04-23T23:55:25.099Z,70.46
2019-04-23T23:57:50.938Z,70.77
